Time;durP1;ratioP1;P1;durP2;ratioP2;P2;SDS_P1;SDS_P2;PMS_P1;PMS_P2;Temp;Humidity;BMP_temperature;BMP_pressure;BME280_temperature;BME280_humidity;BME280_pressure;Samples;Min_cycle;Max_cycle;Signal;HPM_P1;HPM_P2
2021/08/21 00:01:10;;;;;;;5.25;4.75;;;;;;;-139.48;100.00;61774.03;5082207;28;20047;-67
2021/08/21 00:03:54;;;;;;;5.05;4.50;;;;;;;-139.48;100.00;61774.03;5097235;28;20050;-66
2021/08/21 00:06:38;;;;;;;7.25;4.20;;;;;;;-139.48;100.00;61774.03;5096986;28;20087;-67
2021/08/21 00:09:22;;;;;;;6.50;4.45;;;;;;;-139.48;100.00;61774.03;5081906;28;20055;-66
2021/08/21 00:12:06;;;;;;;8.18;4.82;;;;;;;-139.48;100.00;61774.03;5097068;28;20459;-66
2021/08/21 00:14:50;;;;;;;4.88;4.38;;;;;;;-139.48;100.00;61774.03;5081422;28;20095;-67
2021/08/21 00:17:36;;;;;;;5.05;4.55;;;;;;;-139.48;100.00;61774.03;5096765;28;20108;-66
2021/08/21 00:20:20;;;;;;;7.07;4.97;;;;;;;-139.48;100.00;61774.03;5096612;28;20407;-66
2021/08/21 00:23:04;;;;;;;6.15;4.65;;;;;;;-139.48;100.00;61774.03;5096171;28;20447;-66
2021/08/21 00:25:48;;;;;;;5.38;4.88;;;;;;;-139.48;100.00;61774.03;5095672;28;20090;-66
2021/08/21 00:28:32;;;;;;;7.22;5.00;;;;;;;-139.48;100.00;61774.03;5097377;28;20054;-67
2021/08/21 00:31:16;;;;;;;5.63;4.38;;;;;;;-139.48;100.00;61774.03;5095466;28;20130;-67
2021/08/21 00:34:00;;;;;;;5.45;4.40;;;;;;;-139.48;100.00;61774.03;5095784;28;20051;-67
2021/08/21 00:36:45;;;;;;;6.20;4.97;;;;;;;-139.48;100.00;61774.03;5095574;28;20074;-67
2021/08/21 00:39:29;;;;;;;8.48;5.18;;;;;;;-139.48;100.00;61774.03;5081358;28;20454;-67
2021/08/21 00:42:13;;;;;;;6.60;4.82;;;;;;;-139.48;100.00;61774.03;5096500;28;20073;-67
2021/08/21 00:44:56;;;;;;;7.85;5.22;;;;;;;-139.48;100.00;61774.03;5096466;28;20404;-67
2021/08/21 00:47:40;;;;;;;6.05;4.72;;;;;;;-139.48;100.00;61774.03;5095033;28;20075;-68
2021/08/21 00:50:24;;;;;;;8.60;5.07;;;;;;;-139.48;100.00;61774.03;5093895;28;20051;-67
2021/08/21 00:53:08;;;;;;;7.40;5.40;;;;;;;-139.48;100.00;61774.03;5095281;28;20050;-67
2021/08/21 00:55:52;;;;;;;;;;;;;;;-139.48;100.00;61774.03;5095597;28;20504;-67
2021/08/21 00:58:36;;;;;;;6.97;5.50;;;;;;;-139.48;100.00;61774.03;5080996;28;20004;-67
2021/08/21 01:01:21;;;;;;;5.60;4.68;;;;;;;-139.48;100.00;61774.03;5095074;28;20047;-67
2021/08/21 01:04:05;;;;;;;6.70;4.88;;;;;;;-139.48;100.00;61774.03;5095886;28;20096;-67
2021/08/21 01:06:49;;;;;;;7.03;5.25;;;;;;;-139.48;100.00;61774.03;5080834;28;20055;-67
2021/08/21 01:09:36;;;;;;;5.30;4.47;;;;;;;-139.48;100.00;61774.03;5095882;28;20094;-67
2021/08/21 01:12:21;;;;;;;5.38;4.88;;;;;;;-139.48;100.00;61774.03;5094874;28;20105;-67
2021/08/21 01:15:06;;;;;;;8.98;5.28;;;;;;;-139.48;100.00;61774.03;5095853;28;20063;-67
2021/08/21 01:17:53;;;;;;;8.68;5.07;;;;;;;-139.48;100.00;61774.03;5094741;28;20093;-67
2021/08/21 01:20:37;;;;;;;5.68;5.07;;;;;;;-139.48;100.00;61774.03;5094702;28;20477;-67
2021/08/21 01:23:22;;;;;;;7.50;5.15;;;;;;;-139.48;100.00;61774.03;5094705;28;20089;-67
2021/08/21 01:26:09;;;;;;;6.40;4.80;;;;;;;-139.48;100.00;61774.03;5094576;28;20093;-67
2021/08/21 01:28:53;;;;;;;9.90;5.45;;;;;;;-139.48;100.00;61774.03;5094537;28;20404;-68
2021/08/21 01:31:37;;;;;;;6.10;5.50;;;;;;;-139.48;100.00;61774.03;5094578;28;20051;-67
2021/08/21 01:34:21;;;;;;;9.48;5.25;;;;;;;-139.48;100.00;61774.03;5095493;28;20185;-67
2021/08/21 01:37:06;;;;;;;6.45;4.93;;;;;;;-139.48;100.00;61774.03;5094034;28;20519;-67
2021/08/21 01:39:52;;;;;;;5.47;4.97;;;;;;;-139.48;100.00;61774.03;5094388;28;20043;-67
2021/08/21 01:42:38;;;;;;;8.48;4.78;;;;;;;-139.48;100.00;61774.03;5094009;28;20094;-68
2021/08/21 01:45:21;;;;;;;7.90;5.47;;;;;;;-139.48;100.00;61774.03;5095036;28;20459;-68
2021/08/21 01:48:06;;;;;;;6.43;5.43;;;;;;;-139.48;100.00;61774.03;5094914;28;20101;-68
2021/08/21 01:50:50;;;;;;;10.27;5.35;;;;;;;-139.48;100.00;61774.03;5079664;28;20078;-68
2021/08/21 01:53:34;;;;;;;7.45;5.28;;;;;;;-139.48;100.00;61774.03;5094820;28;20177;-68
2021/08/21 01:56:18;;;;;;;7.95;4.90;;;;;;;-139.48;100.00;61774.03;5094676;28;20051;-68
2021/08/21 01:59:02;;;;;;;5.38;4.88;;;;;;;-139.48;100.00;61774.03;5093702;28;20074;-68
2021/08/21 02:01:46;;;;;;;6.22;4.95;;;;;;;-139.48;100.00;61774.03;5094657;28;20093;-68
2021/08/21 02:04:30;;;;;;;7.55;5.18;;;;;;;-139.48;100.00;61774.03;5093889;28;20050;-68
2021/08/21 02:07:14;;;;;;;5.15;4.65;;;;;;;-139.48;100.00;61774.03;5093754;28;20046;-67
2021/08/21 02:09:58;;;;;;;6.30;4.82;;;;;;;-139.48;100.00;61774.03;5079184;28;20051;-68
2021/08/21 02:12:42;;;;;;;8.73;5.20;;;;;;;-139.48;100.00;61774.03;5094632;28;20047;-68
2021/08/21 02:15:25;;;;;;;6.43;5.55;;;;;;;-139.48;100.00;61774.03;5094759;28;20047;-67
2021/08/21 02:18:09;;;;;;;7.35;5.63;;;;;;;-139.48;100.00;61774.03;5094320;28;20050;-68
2021/08/21 02:20:53;;;;;;;8.93;5.40;;;;;;;-139.48;100.00;61774.03;5093694;28;20109;-68
2021/08/21 02:23:38;;;;;;;5.88;5.05;;;;;;;-139.48;100.00;61774.03;5079211;28;20077;-67
2021/08/21 02:26:22;;;;;;;8.10;5.22;;;;;;;-139.48;100.00;61774.03;5093549;28;20393;-68
2021/08/21 02:29:07;;;;;;;7.60;5.03;;;;;;;-139.48;100.00;61774.03;5093208;28;20087;-68
2021/08/21 02:31:51;;;;;;;11.50;5.38;;;;;;;-139.48;100.00;61774.03;5093101;28;20163;-67
2021/08/21 02:34:35;;;;;;;6.55;4.70;;;;;;;-139.48;100.00;61774.03;5094632;28;20408;-68
2021/08/21 02:37:19;;;;;;;8.35;4.72;;;;;;;-139.48;100.00;61774.03;5094042;28;20046;-68
2021/08/21 02:40:04;;;;;;;9.75;5.43;;;;;;;-139.48;100.00;61774.03;5093040;28;20124;-68
2021/08/21 02:42:50;;;;;;;8.10;4.78;;;;;;;-139.48;100.00;61774.03;5092992;28;20047;-68
2021/08/21 02:45:34;;;;;;;6.03;5.00;;;;;;;-139.48;100.00;61774.03;5078828;28;20093;-68
2021/08/21 02:48:18;;;;;;;6.45;5.35;;;;;;;-139.48;100.00;61774.03;5092730;28;20059;-68
2021/08/21 02:51:02;;;;;;;9.77;4.95;;;;;;;-139.48;100.00;61774.03;5093076;28;20085;-68
2021/08/21 02:53:45;;;;;;;6.25;5.22;;;;;;;-139.48;100.00;61774.03;5093054;28;20409;-68
2021/08/21 02:56:31;;;;;;;6.88;4.63;;;;;;;-139.48;100.00;61774.03;5093909;28;20407;-68
2021/08/21 02:59:14;;;;;;;6.93;4.85;;;;;;;-139.48;100.00;61774.03;5092848;28;20085;-68
2021/08/21 03:01:58;;;;;;;9.07;5.60;;;;;;;-139.48;100.00;61774.03;5092852;28;20042;-68
2021/08/21 03:04:42;;;;;;;5.78;5.10;;;;;;;-139.48;100.00;61774.03;5093834;28;20127;-68
2021/08/21 03:07:26;;;;;;;7.45;5.10;;;;;;;-139.48;100.00;61774.03;5078695;28;20047;-68
2021/08/21 03:10:10;;;;;;;6.93;5.53;;;;;;;-139.48;100.00;61774.03;5092658;28;20055;-68
2021/08/21 03:12:54;;;;;;;6.28;4.93;;;;;;;-139.48;100.00;61774.03;5092843;28;20508;-68
2021/08/21 03:15:38;;;;;;;6.68;5.15;;;;;;;-139.48;100.00;61774.03;5093710;28;20051;-68
2021/08/21 03:18:22;;;;;;;6.40;5.32;;;;;;;-139.48;100.00;61774.03;5092757;28;20097;-68
2021/08/21 03:21:06;;;;;;;6.05;5.45;;;;;;;-139.48;100.00;61774.03;5092646;28;20055;-68
2021/08/21 03:23:49;;;;;;;5.97;5.22;;;;;;;-139.48;100.00;61774.03;5092289;28;20051;-68
2021/08/21 03:26:33;;;;;;;7.20;5.70;;;;;;;-139.48;100.00;61774.03;5092248;28;20116;-68
2021/08/21 03:29:17;;;;;;;6.55;5.38;;;;;;;-139.48;100.00;61774.03;5093514;28;20121;-68
2021/08/21 03:32:03;;;;;;;7.43;5.30;;;;;;;-139.48;100.00;61774.03;5092089;28;20565;-68
2021/08/21 03:34:47;;;;;;;6.80;5.60;;;;;;;-139.48;100.00;61774.03;5092202;28;20062;-68
2021/08/21 03:37:31;;;;;;;7.63;5.22;;;;;;;-139.48;100.00;61774.03;5077932;28;20165;-68
2021/08/21 03:40:15;;;;;;;7.28;6.20;;;;;;;-139.48;100.00;61774.03;5092639;28;20093;-68
2021/08/21 03:42:59;;;;;;;7.15;5.28;;;;;;;-139.48;100.00;61774.03;5093396;28;20131;-68
2021/08/21 03:45:44;;;;;;;7.70;4.93;;;;;;;-139.48;100.00;61774.03;5092090;28;20050;-68
2021/08/21 03:48:28;;;;;;;6.13;5.53;;;;;;;-139.48;100.00;61774.03;5093015;28;20100;-68
2021/08/21 03:51:11;;;;;;;8.57;4.90;;;;;;;-139.48;100.00;61774.03;5078053;28;20557;-68
2021/08/21 03:53:55;;;;;;;9.02;5.38;;;;;;;-139.48;100.00;61774.03;5093001;28;20119;-68
2021/08/21 03:56:40;;;;;;;6.18;4.90;;;;;;;-139.48;100.00;61774.03;5078179;28;20043;-67
2021/08/21 03:59:24;;;;;;;7.20;5.40;;;;;;;-139.48;100.00;61774.03;5092258;28;20042;-68
2021/08/21 04:02:07;;;;;;;6.32;5.03;;;;;;;-139.48;100.00;61774.03;5077758;28;20058;-68
2021/08/21 04:04:51;;;;;;;6.63;5.03;;;;;;;-139.48;100.00;61774.03;5092197;28;20055;-68
2021/08/21 04:07:35;;;;;;;7.10;5.32;;;;;;;-139.48;100.00;61774.03;5091968;28;20443;-68
2021/08/21 04:10:19;;;;;;;8.88;5.28;;;;;;;-139.48;100.00;61774.03;5077755;28;20058;-68
2021/08/21 04:13:03;;;;;;;6.82;4.68;;;;;;;-139.48;100.00;61774.03;5092160;28;20135;-68
2021/08/21 04:15:47;;;;;;;7.43;5.22;;;;;;;-139.48;100.00;61774.03;5077846;28;20101;-68
2021/08/21 04:18:31;;;;;;;6.25;4.70;;;;;;;-139.48;100.00;61774.03;5077951;28;20051;-68
2021/08/21 04:21:15;;;;;;;5.85;4.60;;;;;;;-139.48;100.00;61774.03;5092001;28;20063;-67
2021/08/21 04:23:59;;;;;;;5.55;4.75;;;;;;;-139.48;100.00;61774.03;5092297;28;20055;-68
2021/08/21 04:26:43;;;;;;;11.20;5.30;;;;;;;-139.48;100.00;61774.03;5096589;28;20094;-68
2021/08/21 04:29:27;;;;;;;7.53;4.60;;;;;;;-139.48;100.00;61774.03;5081083;28;20051;-68
2021/08/21 04:32:10;;;;;;;5.25;4.32;;;;;;;-139.48;100.00;61774.03;5095753;28;20047;-68
2021/08/21 04:34:54;;;;;;;10.10;4.40;;;;;;;-139.48;100.00;61774.03;5095608;28;20039;-68
2021/08/21 04:37:38;;;;;;;8.05;4.82;;;;;;;-139.48;100.00;61774.03;5095520;28;20055;-68
2021/08/21 04:40:23;;;;;;;5.35;4.45;;;;;;;-139.48;100.00;61774.03;5096579;28;20039;-68
2021/08/21 04:43:07;;;;;;;5.47;4.40;;;;;;;-139.48;100.00;61774.03;5081197;28;20046;-68
2021/08/21 04:45:51;;;;;;;5.40;4.45;;;;;;;-139.48;100.00;61774.03;5096171;28;20047;-67
2021/08/21 04:48:35;;;;;;;5.18;4.43;;;;;;;-139.48;100.00;61774.03;5095467;28;20051;-68
2021/08/21 04:51:19;;;;;;;7.53;4.97;;;;;;;-139.48;100.00;61774.03;5095362;28;20089;-68
2021/08/21 04:54:03;;;;;;;5.63;4.35;;;;;;;-139.48;100.00;61774.03;5095270;28;20108;-68
2021/08/21 04:56:47;;;;;;;4.47;4.07;;;;;;;-139.48;100.00;61774.03;5096011;28;20074;-68
2021/08/21 04:59:30;;;;;;;5.38;4.05;;;;;;;-139.48;100.00;61774.03;5095236;28;20070;-68
2021/08/21 05:02:14;;;;;;;5.38;4.05;;;;;;;-139.48;100.00;61774.03;5094850;28;20471;-68
2021/08/21 05:04:58;;;;;;;;;;;;;;;-139.48;100.00;61774.03;5095383;28;20073;-67
2021/08/21 05:07:47;;;;;;;5.57;4.75;;;;;;;-139.48;100.00;61774.03;5095954;28;19919;-68
2021/08/21 05:10:31;;;;;;;10.32;5.60;;;;;;;-139.48;100.00;61774.03;5094612;28;20062;-68
2021/08/21 05:13:15;;;;;;;8.18;4.75;;;;;;;-139.48;100.00;61774.03;5095802;28;20063;-68
2021/08/21 05:15:59;;;;;;;5.25;4.75;;;;;;;-139.48;100.00;61774.03;5095808;28;20047;-68
2021/08/21 05:18:49;;;;;;;6.57;5.50;;;;;;;-139.48;100.00;61774.03;5094456;28;20143;-68
2021/08/21 05:21:36;;;;;;;8.40;5.50;;;;;;;-139.48;100.00;61774.03;5094776;28;20101;-68
2021/08/21 05:24:20;;;;;;;10.05;5.57;;;;;;;-139.48;100.00;61774.03;5094626;28;20051;-68
2021/08/21 05:27:04;;;;;;;7.45;5.10;;;;;;;-139.48;100.00;61774.03;5095206;28;20586;-68
2021/08/21 05:29:49;;;;;;;17.60;5.90;;;;;;;-139.48;100.00;61774.03;5095374;28;20050;-68
2021/08/21 05:32:35;;;;;;;6.97;5.50;;;;;;;-139.48;100.00;61774.03;5094188;28;20062;-67
2021/08/21 05:35:19;;;;;;;7.00;4.97;;;;;;;-139.48;100.00;61774.03;5080133;28;20455;-68
2021/08/21 05:38:03;;;;;;;7.75;5.55;;;;;;;-139.48;100.00;61774.03;5093828;28;20097;-67
2021/08/21 05:40:47;;;;;;;8.15;5.07;;;;;;;-139.48;100.00;61774.03;5094041;28;20042;-68
2021/08/21 05:43:32;;;;;;;;;;;;;;;-139.48;100.00;61774.03;5095432;28;20050;-68
2021/08/21 05:46:15;;;;;;;6.00;5.20;;;;;;;-139.48;100.00;61774.03;5079913;28;19918;-67
2021/08/21 05:48:59;;;;;;;9.63;5.75;;;;;;;-139.48;100.00;61774.03;5079893;28;20051;-67
2021/08/21 05:51:43;;;;;;;6.53;5.10;;;;;;;-139.48;100.00;61774.03;5094158;28;20079;-68
2021/08/21 05:54:27;;;;;;;7.65;5.35;;;;;;;-139.48;100.00;61774.03;5094105;28;20083;-68
2021/08/21 05:57:11;;;;;;;7.10;5.07;;;;;;;-139.48;100.00;61774.03;5093859;28;20507;-68
2021/08/21 05:59:55;;;;;;;8.00;5.40;;;;;;;-139.48;100.00;61774.03;5094763;28;20047;-68
2021/08/21 06:02:40;;;;;;;5.90;4.80;;;;;;;-139.48;100.00;61774.03;5095214;28;20050;-68
2021/08/21 06:05:24;;;;;;;9.35;5.20;;;;;;;-139.48;100.00;61774.03;5094864;28;20575;-66
2021/08/21 06:08:08;;;;;;;6.85;5.10;;;;;;;-139.48;100.00;61774.03;5079251;28;20074;-68
2021/08/21 06:10:54;;;;;;;7.65;4.95;;;;;;;-139.48;100.00;61774.03;5093698;28;20050;-68
2021/08/21 06:13:38;;;;;;;6.70;4.90;;;;;;;-139.48;100.00;61774.03;5093686;28;20539;-67
2021/08/21 06:16:22;;;;;;;8.35;5.43;;;;;;;-139.48;100.00;61774.03;5094601;28;20508;-68
2021/08/21 06:19:07;;;;;;;6.25;5.32;;;;;;;-139.48;100.00;61774.03;5093649;28;20135;-68
2021/08/21 06:21:51;;;;;;;5.72;4.72;;;;;;;-139.48;100.00;61774.03;5093778;28;20405;-68
2021/08/21 06:24:34;;;;;;;12.18;6.32;;;;;;;-139.48;100.00;61774.03;5079475;28;20173;-68
2021/08/21 06:27:18;;;;;;;6.25;4.55;;;;;;;-139.48;100.00;61774.03;5095815;28;20528;-68
2021/08/21 06:30:03;;;;;;;6.70;4.38;;;;;;;-139.48;100.00;61774.03;5093283;28;20104;-68
2021/08/21 06:32:48;;;;;;;6.28;4.68;;;;;;;-139.48;100.00;61774.03;5093116;28;20055;-68
2021/08/21 06:35:32;;;;;;;7.97;4.60;;;;;;;-139.48;100.00;61774.03;5093588;28;20097;-68
2021/08/21 06:38:16;;;;;;;6.03;4.65;;;;;;;-139.48;100.00;61774.03;5078905;28;20050;-68
2021/08/21 06:41:00;;;;;;;7.45;4.82;;;;;;;-139.48;100.00;61774.03;5093099;28;20085;-68
2021/08/21 06:43:43;;;;;;;10.20;4.88;;;;;;;-139.48;100.00;61774.03;5092977;28;20047;-68
2021/08/21 06:46:27;;;;;;;6.15;5.10;;;;;;;-139.48;100.00;61774.03;5092760;28;20446;-69
2021/08/21 06:49:11;;;;;;;8.68;5.20;;;;;;;-139.48;100.00;61774.03;5092803;28;20066;-68
2021/08/21 06:51:55;;;;;;;5.82;4.90;;;;;;;-139.48;100.00;61774.03;5092414;28;20534;-67
2021/08/21 06:54:39;;;;;;;;;;;;;;;-139.48;100.00;61774.03;5093013;28;20055;-67
2021/08/21 06:57:23;;;;;;;6.68;4.95;;;;;;;-139.48;100.00;61774.03;5078172;28;19965;-67
2021/08/21 07:00:08;;;;;;;7.13;4.95;;;;;;;-139.48;100.00;61774.03;5092179;28;20101;-68
2021/08/21 07:02:52;;;;;;;7.40;5.45;;;;;;;-139.48;100.00;61774.03;5077991;28;20451;-67
2021/08/21 07:05:36;;;;;;;5.80;5.20;;;;;;;-139.48;100.00;61774.03;5092016;28;20051;-67
2021/08/21 07:08:20;;;;;;;10.90;5.40;;;;;;;-139.48;100.00;61774.03;5092199;28;20047;-68
2021/08/21 07:11:04;;;;;;;6.20;4.65;;;;;;;-139.48;100.00;61774.03;5077703;28;20078;-68
2021/08/21 07:13:48;;;;;;;8.40;4.88;;;;;;;-139.48;100.00;61774.03;5077438;28;20047;-68
2021/08/21 07:16:32;;;;;;;6.78;4.72;;;;;;;-139.48;100.00;61774.03;5092727;28;20065;-68
2021/08/21 07:19:16;;;;;;;6.72;5.50;;;;;;;-139.48;100.00;61774.03;5091981;28;20070;-68
2021/08/21 07:22:00;;;;;;;5.93;4.60;;;;;;;-139.48;100.00;61774.03;5091777;28;20146;-68
2021/08/21 07:24:44;;;;;;;5.50;4.30;;;;;;;-139.48;100.00;61774.03;5077399;28;20055;-68
2021/08/21 07:27:27;;;;;;;8.45;5.20;;;;;;;-139.48;100.00;61774.03;5091475;28;20077;-68
2021/08/21 07:30:14;;;;;;;5.82;4.63;;;;;;;-139.48;100.00;61774.03;5091890;28;20051;-68
2021/08/21 07:32:58;;;;;;;6.65;4.18;;;;;;;-139.48;100.00;61774.03;5091672;28;20109;-68
2021/08/21 07:35:42;;;;;;;7.65;4.60;;;;;;;-139.48;100.00;61774.03;5092793;28;20397;-68
2021/08/21 07:38:26;;;;;;;8.00;4.63;;;;;;;-139.48;100.00;61774.03;5091718;28;20154;-66
2021/08/21 07:41:11;;;;;;;8.43;5.07;;;;;;;-139.48;100.00;61774.03;5092670;28;20051;-66
2021/08/21 07:43:57;;;;;;;8.45;5.32;;;;;;;-139.48;100.00;61774.03;5091663;28;20050;-67
2021/08/21 07:46:41;;;;;;;7.65;4.55;;;;;;;-139.48;100.00;61774.03;5077406;28;20051;-67
2021/08/21 07:49:25;;;;;;;7.47;4.38;;;;;;;-139.48;100.00;61774.03;5091590;28;20508;-67
2021/08/21 07:52:09;;;;;;;8.18;4.80;;;;;;;-139.48;100.00;61774.03;5092635;28;20051;-67
2021/08/21 07:54:53;;;;;;;8.55;4.38;;;;;;;-139.48;100.00;61774.03;5091805;28;20082;-66
2021/08/21 07:57:38;;;;;;;7.32;5.22;;;;;;;-139.48;100.00;61774.03;5092367;28;20417;-67
2021/08/21 08:00:22;;;;;;;5.45;4.32;;;;;;;-139.48;100.00;61774.03;5095082;28;20507;-67
2021/08/21 08:03:05;;;;;;;5.78;4.20;;;;;;;-139.48;100.00;61774.03;5095566;28;20093;-66
2021/08/21 08:05:49;;;;;;;5.35;3.85;;;;;;;-139.48;100.00;61774.03;5096291;28;20043;-67
2021/08/21 08:08:33;;;;;;;;;;;;;;;-139.48;100.00;61774.03;5096636;28;20484;-67
2021/08/21 08:11:17;;;;;;;4.80;4.17;;;;;;;-139.48;100.00;61774.03;5095610;28;19922;-67
2021/08/21 08:14:01;;;;;;;6.38;4.43;;;;;;;-139.48;100.00;61774.03;5095465;28;20275;-67
2021/08/21 08:16:45;;;;;;;6.40;4.13;;;;;;;-139.48;100.00;61774.03;5095059;28;20119;-66
2021/08/21 08:19:29;;;;;;;;;;;;;;;-139.48;100.00;61774.03;5096916;28;20381;-67
2021/08/21 08:22:13;;;;;;;6.20;4.60;;;;;;;-139.48;100.00;61774.03;5095170;28;19952;-67
2021/08/21 08:24:57;;;;;;;5.80;3.70;;;;;;;-139.48;100.00;61774.03;5095881;28;20047;-67
2021/08/21 08:27:41;;;;;;;6.03;4.57;;;;;;;-139.48;100.00;61774.03;5095765;28;20487;-67
2021/08/21 08:30:25;;;;;;;4.82;4.32;;;;;;;-139.48;100.00;61774.03;5095748;28;20051;-67
2021/08/21 08:33:09;;;;;;;6.45;3.95;;;;;;;-139.48;100.00;61774.03;5094676;28;20051;-66
2021/08/21 08:35:53;;;;;;;5.78;4.03;;;;;;;-139.48;100.00;61774.03;5095609;28;20138;-67
2021/08/21 08:38:37;;;;;;;8.32;4.53;;;;;;;-139.48;100.00;61774.03;5094646;28;20050;-67
2021/08/21 08:41:21;;;;;;;;;;;;;;;-139.48;100.00;61774.03;5096418;28;20165;-67
2021/08/21 08:44:10;;;;;;;4.65;4.05;;;;;;;-139.48;100.00;61774.03;5094884;28;19918;-67
2021/08/21 08:46:54;;;;;;;7.65;4.15;;;;;;;-139.48;100.00;61774.03;5094523;28;20047;-67
2021/08/21 08:49:38;;;;;;;5.97;4.68;;;;;;;-139.48;100.00;61774.03;5094257;28;20135;-67
2021/08/21 08:52:22;;;;;;;6.40;4.40;;;;;;;-139.48;100.00;61774.03;5094544;28;20094;-66
2021/08/21 08:55:08;;;;;;;5.10;4.28;;;;;;;-139.48;100.00;61774.03;5094520;28;20160;-66
2021/08/21 08:57:53;;;;;;;6.95;3.83;;;;;;;-139.48;100.00;61774.03;5095370;28;20094;-66
2021/08/21 09:00:37;;;;;;;5.60;3.85;;;;;;;-139.48;100.00;61774.03;5094385;28;20161;-66
2021/08/21 09:03:26;;;;;;;5.97;3.95;;;;;;;-139.48;100.00;61774.03;5093972;28;20587;-66
2021/08/21 09:06:12;;;;;;;7.38;4.30;;;;;;;-139.48;100.00;61774.03;5093905;28;20428;-66
2021/08/21 09:09:12;;;;;;;4.32;3.88;;;;;;;-139.48;100.00;61774.03;5095443;28;20047;-66
2021/08/21 09:11:56;;;;;;;5.00;3.80;;;;;;;-139.48;100.00;61774.03;5092822;28;20093;-66
2021/08/21 09:14:40;;;;;;;;;;;;;;;-139.48;100.00;61774.03;5095486;28;20467;-66
2021/08/21 09:17:24;;;;;;;5.03;3.83;;;;;;;-139.48;100.00;61774.03;5079440;28;20285;-67
2021/08/21 09:20:10;;;;;;;5.82;3.90;;;;;;;-139.48;100.00;61774.03;5094780;28;20492;-66
2021/08/21 09:23:17;;;;;;;5.32;4.57;;;;;;;-139.48;100.00;61774.03;5094184;28;20086;-66
2021/08/21 09:26:08;;;;;;;6.97;4.63;;;;;;;-139.48;100.00;61774.03;5094865;28;20047;-66
2021/08/21 09:28:54;;;;;;;4.10;3.70;;;;;;;-139.48;100.00;61774.03;5094604;28;20051;-66
2021/08/21 09:31:38;;;;;;;7.45;3.70;;;;;;;-139.48;100.00;61774.03;5093753;28;20130;-66
2021/08/21 09:34:22;;;;;;;6.22;3.92;;;;;;;-139.48;100.00;61774.03;5093875;28;20046;-66
2021/08/21 09:37:09;;;;;;;5.97;3.95;;;;;;;-139.48;100.00;61774.03;5094401;28;20120;-66
2021/08/21 09:40:02;;;;;;;3.95;3.50;;;;;;;-139.48;100.00;61774.03;5094492;28;20186;-66
2021/08/21 09:42:46;;;;;;;5.05;4.00;;;;;;;-139.48;100.00;61774.03;5093909;28;20527;-66
2021/08/21 09:45:30;;;;;;;6.38;4.07;;;;;;;-139.48;100.00;61774.03;5094584;28;20066;-66
2021/08/21 09:48:14;;;;;;;4.20;3.80;;;;;;;-139.48;100.00;61774.03;5093228;28;20062;-66
2021/08/21 09:50:58;;;;;;;7.07;4.00;;;;;;;-139.48;100.00;61774.03;5094405;28;20416;-66
2021/08/21 09:53:41;;;;;;;7.45;3.72;;;;;;;-139.48;100.00;61774.03;5093342;28;20101;-66
2021/08/21 09:56:35;;;;;;;;;;;;;;;-139.48;100.00;61774.03;5093428;28;20480;-67
2021/08/21 09:59:38;;;;;;;5.23;3.70;;;;;;;-139.48;100.00;61774.03;5093147;28;19919;-66
2021/08/21 10:02:24;;;;;;;5.57;4.07;;;;;;;-139.48;100.00;61774.03;5094229;28;20104;-67
2021/08/21 10:05:08;;;;;;;7.72;3.67;;;;;;;-139.48;100.00;61774.03;5078777;28;20110;-66
2021/08/21 10:08:03;;;;;;;5.20;4.00;;;;;;;-139.48;100.00;61774.03;5094106;28;20093;-66
2021/08/21 10:10:52;;;;;;;6.28;3.70;;;;;;;-139.48;100.00;61774.03;5093020;28;20189;-67
2021/08/21 10:13:38;;;;;;;7.88;4.03;;;;;;;-139.48;100.00;61774.03;5092983;28;20076;-69
2021/08/21 10:16:22;;;;;;;4.20;3.60;;;;;;;-139.48;100.00;61774.03;5078590;28;20072;-65
2021/08/21 10:19:06;;;;;;;6.20;4.00;;;;;;;-139.48;100.00;61774.03;5078580;28;20127;-65
2021/08/21 10:22:00;;;;;;;6.32;3.90;;;;;;;-139.48;100.00;61774.03;5093430;28;20101;-65
2021/08/21 10:24:48;;;;;;;3.90;3.47;;;;;;;-139.48;100.00;61774.03;5092869;28;20097;-65
2021/08/21 10:27:45;;;;;;;4.47;4.07;;;;;;;-139.48;100.00;61774.03;5092436;28;20465;-65
2021/08/21 10:30:46;;;;;;;5.60;4.15;;;;;;;-139.48;100.00;61774.03;5092387;28;20148;-65
2021/08/21 10:33:31;;;;;;;4.28;3.58;;;;;;;-139.48;100.00;61774.03;5093751;28;20055;-65
2021/08/21 10:36:41;;;;;;;7.93;3.97;;;;;;;-139.48;100.00;61774.03;5092216;28;20439;-65
2021/08/21 10:39:33;;;;;;;4.50;4.10;;;;;;;-139.48;100.00;61774.03;5093692;28;20068;-65
2021/08/21 10:42:24;;;;;;;4.28;3.75;;;;;;;-139.48;100.00;61774.03;5093469;28;20055;-65
2021/08/21 10:45:10;;;;;;;4.10;3.80;;;;;;;-139.48;100.00;61774.03;5093214;28;20101;-65
2021/08/21 10:47:54;;;;;;;4.78;4.22;;;;;;;-139.48;100.00;61774.03;5092029;28;20421;-65
2021/08/21 10:50:44;;;;;;;5.03;3.60;;;;;;;-139.48;100.00;61774.03;5093706;28;20097;-65
2021/08/21 10:53:30;;;;;;;7.13;3.92;;;;;;;-139.48;100.00;61774.03;5092278;28;20055;-65
2021/08/21 10:56:32;;;;;;;6.13;4.22;;;;;;;-139.48;100.00;61774.03;5092143;28;20121;-65
2021/08/21 10:59:38;;;;;;;7.43;5.57;;;;;;;-139.48;100.00;61774.03;5092278;28;20086;-66
2021/08/21 11:02:25;;;;;;;4.80;4.40;;;;;;;-139.48;100.00;61774.03;5093113;28;20783;-66
2021/08/21 11:05:47;;;;;;;9.70;6.03;;;;;;;-139.48;100.00;61774.03;5092042;28;20069;-66
2021/08/21 11:08:38;;;;;;;4.72;4.22;;;;;;;-139.48;100.00;61774.03;5093023;28;20069;-66
2021/08/21 11:11:28;;;;;;;4.32;3.75;;;;;;;-139.48;100.00;61774.03;5092977;28;20096;-65
2021/08/21 11:14:22;;;;;;;4.70;4.30;;;;;;;-139.48;100.00;61774.03;5091883;28;20132;-66
2021/08/21 11:17:11;;;;;;;4.47;4.07;;;;;;;-139.48;100.00;61774.03;5092678;28;20529;-65
2021/08/21 11:19:54;;;;;;;4.28;3.80;;;;;;;-139.48;100.00;61774.03;5092977;28;20401;-67
2021/08/21 11:22:39;;;;;;;4.25;3.92;;;;;;;-139.48;100.00;61774.03;5092737;28;20067;-67
2021/08/21 11:25:24;;;;;;;4.45;4.05;;;;;;;-139.48;100.00;61774.03;5077719;28;20055;-65
2021/08/21 11:28:10;;;;;;;4.55;4.15;;;;;;;-139.48;100.00;61774.03;5092529;28;20447;-65
2021/08/21 11:31:11;;;;;;;4.65;4.03;;;;;;;-139.48;100.00;61774.03;5092523;28;20050;-65
2021/08/21 11:33:56;;;;;;;4.80;4.22;;;;;;;-139.48;100.00;61774.03;5092312;28;20128;-67
2021/08/21 11:36:40;;;;;;;7.20;4.57;;;;;;;-139.48;100.00;61774.03;5091568;28;20573;-67
2021/08/21 11:39:24;;;;;;;4.82;4.43;;;;;;;-139.48;100.00;61774.03;5091600;28;20504;-67
2021/08/21 11:42:08;;;;;;;5.25;4.13;;;;;;;-139.48;100.00;61774.03;5091982;28;20051;-67
2021/08/21 11:44:55;;;;;;;4.75;4.35;;;;;;;-139.48;100.00;61774.03;5091350;28;20097;-67
2021/08/21 11:47:40;;;;;;;4.75;4.28;;;;;;;-139.48;100.00;61774.03;5077573;28;20097;-66
2021/08/21 11:50:41;;;;;;;4.45;4.07;;;;;;;-139.48;100.00;61774.03;5092767;28;20148;-66
2021/08/21 11:53:28;;;;;;;5.90;4.22;;;;;;;-139.48;100.00;61774.03;5091591;28;20063;-67
2021/08/21 11:56:14;;;;;;;4.75;4.35;;;;;;;-139.48;100.00;61774.03;5091178;28;20093;-67
2021/08/21 11:59:08;;;;;;;5.45;4.20;;;;;;;-139.48;100.00;61774.03;5091481;28;20089;-66
2021/08/21 12:02:00;;;;;;;4.28;3.88;;;;;;;-139.48;100.00;61774.03;5092565;28;20077;-67
2021/08/21 12:04:54;;;;;;;6.15;3.92;;;;;;;-139.48;100.00;61774.03;5091691;28;20232;-67
2021/08/21 12:07:39;;;;;;;7.38;4.43;;;;;;;-139.48;100.00;61774.03;5091396;28;20055;-67
2021/08/21 12:10:24;;;;;;;4.10;3.80;;;;;;;-139.48;100.00;61774.03;5077124;28;20055;-68
2021/08/21 12:13:08;;;;;;;7.80;4.70;;;;;;;-139.48;100.00;61774.03;5092673;28;20105;-67
2021/08/21 12:15:54;;;;;;;6.40;4.13;;;;;;;-139.48;100.00;61774.03;5092272;28;20127;-68
2021/08/21 12:18:40;;;;;;;4.88;4.47;;;;;;;-139.48;100.00;61774.03;5092209;28;20054;-68
2021/08/21 12:21:25;;;;;;;6.03;5.38;;;;;;;-139.48;100.00;61774.03;5092674;28;20161;-68
2021/08/21 12:24:11;;;;;;;4.53;4.13;;;;;;;-139.48;100.00;61774.03;5091458;28;20046;-68
2021/08/21 12:26:55;;;;;;;7.05;4.72;;;;;;;-139.48;100.00;61774.03;5093781;28;20082;-66
2021/08/21 12:29:39;;;;;;;8.13;4.75;;;;;;;-139.48;100.00;61774.03;5091108;28;20508;-63
2021/08/21 12:32:26;;;;;;;4.60;4.18;;;;;;;-139.48;100.00;61774.03;5092398;28;20504;-63
2021/08/21 12:35:13;;;;;;;5.00;4.50;;;;;;;-139.48;100.00;61774.03;5091187;28;20086;-63